Nantucket — WBQ6814 — position and weather

sailwx.info

Track history (hours):
 
Tides and Currents Weather Stations Pressure Air Temp Water Temp Dewpoint Dewpoint Depression Visibility Wind Speed Wind Dir Waves Ship Positions

Nantucket

Owner: WOODS HOLE, MARTHA'S VINEYARD AND NANTUCKET STEAMSHIP AUTHORITY, WOODS HOLE, MA. More information available from US FCC via Universal Licensing System and Coast Guard Vessel Documentation Center.

Last reported at 2018-Jul-22 02:28 UTC. Time now 2018-Aug-14 15:19 UTC.
Position N 41°27' W 070°36'.
Warning: this ship's position is 23 days out of date.

Length 66 m; draft 4 m.

Type: Passenger vessel. MMSI: 367324580.

Date/timePositionNaut miles runAvg speedWind from/ knotsBaromVisibWave heightAir tempDewpointWater temp
2018-Jul-22 02:28N 41°27' W 070°36'2 1.7
2018-Jul-22 01:03N 41°30' W 070°37'1 0.5
2018-Jul-21 23:58N 41°30' W 070°38'4 7.2
2018-Jul-21 23:24N 41°28' W 070°33'2 0.0
2018-Jul-20 05:59N 41°27' W 070°36'0 0.0
2018-Jul-20 05:28N 41°27' W 070°36'0 0.0
2018-Jul-20 05:00N 41°27' W 070°36'0 0.0
2018-Jul-20 04:30N 41°27' W 070°36'  
2018-Jul-14 12:22N 41°31' W 070°40'4 7.7
2018-Jul-14 11:53N 41°30' W 070°36'3 7.6
2018-Jul-14 11:30N 41°28' W 070°33'2 0.1
2018-Jul-13 07:20N 41°27' W 070°36'0 0.0
2018-Jul-13 07:00N 41°27' W 070°36'  
Track history (hours):
 
Tides and Currents Weather Stations Pressure Air Temp Water Temp Dewpoint Dewpoint Depression Visibility Wind Speed Wind Dir Waves Ship Positions

Nantucket

Owner: WOODS HOLE, MARTHA'S VINEYARD AND NANTUCKET STEAMSHIP AUTHORITY, WOODS HOLE, MA. More information available from US FCC via Universal Licensing System and Coast Guard Vessel Documentation Center.

Last reported at 2018-Jul-22 02:28 UTC. Time now 2018-Aug-14 15:19 UTC.
Position N 41°27' W 070°36'.
Warning: this ship's position is 23 days out of date.

Length 66 m; draft 4 m.

Type: Passenger vessel. MMSI: 367324580.

Date/timePositionNaut miles runAvg speedWind from/ knotsBaromVisibWave heightAir tempDewpointWater temp
2018-Jul-22 02:28N 41°27' W 070°36'2 1.7
2018-Jul-22 01:03N 41°30' W 070°37'1 0.5
2018-Jul-21 23:58N 41°30' W 070°38'4 7.2
2018-Jul-21 23:24N 41°28' W 070°33'2 0.0
2018-Jul-20 05:59N 41°27' W 070°36'0 0.0
2018-Jul-20 05:28N 41°27' W 070°36'0 0.0
2018-Jul-20 05:00N 41°27' W 070°36'0 0.0
2018-Jul-20 04:30N 41°27' W 070°36'  
2018-Jul-14 12:22N 41°31' W 070°40'4 7.7
2018-Jul-14 11:53N 41°30' W 070°36'3 7.6
2018-Jul-14 11:30N 41°28' W 070°33'2 0.1
2018-Jul-13 07:20N 41°27' W 070°36'0 0.0
2018-Jul-13 07:00N 41°27' W 070°36'  

Dump ship's entire track history